Decoded Metar for RCTP (TAIPEI in TAIWAN) (IATA:TPE) | Meteo·Mobile Aviation Weather
aviador You're here:

RCTP Decoded Metar

TAIPEI in TAIWAN
Report Time2019-05-25 23:00:00
UTC Time2019-05-25 23:19:12
Flight Rules mvfr MVFR
Wind170° at 05 kt
W.Decomp.*RWY 23: 2.8 kt HW 4.1 kt LCW
Visibility9999 m
Phenomena:N/A
Clouds:Few 009 Hf
Broken 012 Hf
Expected CloudBase > 1,600 ft AGL from Temp-Dew spread
Ceiling1,200 ft
Temp27°C (ISA +12)
Dew Point23°C (79% RH)
Heat Index29.6°C
QNH1011 hPa
Density Alt1,952 ft
Elevation108 ft
Report Wrong Elevation
Raw Report
METAR RCTP 252300Z 17005KT 140V210 9999 FEW009 BKN012 27/23 Q1011 NOSIG
RMK A2986=

Extra information for RCTP:More info

Metar Taf Metar & Taf Last 4 Metars F.Rules Stats Wind Profile Meteogram Temp Stats Airport Information Weather charts Add Link Nearby VenuesMetar ALERT Operation Metar Decoded Social comments